Time;durP1;ratioP1;P1;durP2;ratioP2;P2;SDS_P1;SDS_P2;PMS_P1;PMS_P2;Temp;Humidity;BMP_temperature;BMP_pressure;BME280_temperature;BME280_humidity;BME280_pressure;Samples;Min_cycle;Max_cycle;Signal;HPM_P1;HPM_P2
2023/03/02 00:00:46;;;;;;;18.37;10.10;;;2.10;99.90;;;;;;4995742;28;20442;-81
2023/03/02 00:03:13;;;;;;;16.03;9.33;;;2.20;99.90;;;;;;4995723;28;20428;-82
2023/03/02 00:05:40;;;;;;;19.47;10.60;;;2.20;99.90;;;;;;4995263;28;20460;-84
2023/03/02 00:08:08;;;;;;;14.73;8.80;;;2.10;99.90;;;;;;4995647;28;20914;-83
2023/03/02 00:10:35;;;;;;;17.53;8.63;;;2.10;99.90;;;;;;4994276;28;20461;-81
2023/03/02 00:13:00;;;;;;;20.43;10.83;;;2.20;99.90;;;;;;4995543;28;20506;-84
2023/03/02 00:15:26;;;;;;;15.30;8.40;;;2.20;99.90;;;;;;5010319;28;20526;-82
2023/03/02 00:17:54;;;;;;;14.83;8.30;;;2.10;99.90;;;;;;4995392;28;20199;-83
2023/03/02 00:20:20;;;;;;;15.30;9.00;;;1.70;99.90;;;;;;4993831;28;20187;-82
2023/03/02 00:22:46;;;;;;;14.00;7.50;;;1.90;99.90;;;;;;4994187;28;20782;-84
2023/03/02 00:25:13;;;;;;;22.60;8.60;;;1.90;99.90;;;;;;4993858;28;20183;-81
2023/03/02 00:27:40;;;;;;;17.60;7.80;;;2.00;99.90;;;;;;4995343;28;20271;-83
2023/03/02 00:30:08;;;;;;;20.10;8.43;;;1.80;99.90;;;;;;4995360;28;20417;-81
2023/03/02 00:32:33;;;;;;;12.93;7.20;;;1.90;99.90;;;;;;5010333;28;20467;-82
2023/03/02 00:34:59;;;;;;;19.90;8.43;;;1.90;99.90;;;;;;4994615;28;20417;-80
2023/03/02 00:37:25;;;;;;;13.83;6.80;;;1.90;99.90;;;;;;4994992;28;20383;-83
2023/03/02 00:39:51;;;;;;;12.00;6.70;;;1.80;99.90;;;;;;4994795;28;20192;-82
2023/03/02 00:42:17;;;;;;;16.60;8.20;;;1.40;99.90;;;;;;4994881;28;20172;-81
2023/03/02 00:44:42;;;;;;;16.10;8.90;;;1.70;99.90;;;;;;4994918;28;20419;-82
2023/03/02 00:47:08;;;;;;;14.97;7.73;;;1.50;99.90;;;;;;5009537;28;20216;-80
2023/03/02 00:49:33;;;;;;;16.47;8.93;;;1.70;99.90;;;;;;4994467;28;20182;-82
2023/03/02 00:51:59;;;;;;;13.07;6.40;;;1.50;99.90;;;;;;5019772;28;20187;-82
2023/03/02 00:54:25;;;;;;;12.97;7.20;;;1.60;99.90;;;;;;4994740;28;20175;-84
2023/03/02 00:56:50;;;;;;;13.37;7.63;;;1.70;99.90;;;;;;4994815;28;20167;-84
2023/03/02 00:59:28;;;;;;;16.07;9.37;;;2.10;99.90;;;;;;5010022;28;20174;-84
2023/03/02 01:01:58;;;;;;;16.63;8.07;;;1.60;99.90;;;;;;4994891;28;20205;-82
2023/03/02 01:04:30;;;;;;;11.43;7.70;;;1.50;99.90;;;;;;4993757;28;20421;-83
2023/03/02 01:07:00;;;;;;;16.30;7.77;;;1.50;99.90;;;;;;4994436;28;20544;-84
2023/03/02 01:09:26;;;;;;;15.07;8.37;;;1.60;99.90;;;;;;4994580;28;20411;-82
2023/03/02 01:11:52;;;;;;;18.43;8.67;;;1.50;99.90;;;;;;4994423;28;21003;-81
2023/03/02 01:14:18;;;;;;;15.10;8.10;;;1.80;99.90;;;;;;4994501;28;20543;-82
2023/03/02 01:16:44;;;;;;;18.30;8.60;;;1.80;99.90;;;;;;4994118;28;20848;-81
2023/03/02 01:19:10;;;;;;;17.97;8.30;;;2.10;99.90;;;;;;4993778;28;20501;-81
2023/03/02 01:21:35;;;;;;;13.97;7.40;;;1.50;99.90;;;;;;4994366;28;20525;-81
2023/03/02 01:24:01;;;;;;;15.47;8.20;;;1.50;99.90;;;;;;4994142;28;20507;-82
2023/03/02 01:26:26;;;;;;;14.53;7.90;;;1.60;99.90;;;;;;4993985;28;20214;-82
2023/03/02 01:28:54;;;;;;;14.30;6.37;;;1.60;99.90;;;;;;4994214;28;20537;-82
2023/03/02 01:31:23;;;;;;;14.03;8.47;;;1.70;99.90;;;;;;5008887;28;20186;-80
2023/03/02 01:33:49;;;;;;;14.13;7.57;;;1.60;99.90;;;;;;5013621;28;20431;-82
2023/03/02 01:36:15;;;;;;;13.83;7.50;;;1.70;99.90;;;;;;5011430;28;20957;-82
2023/03/02 01:38:40;;;;;;;13.87;8.40;;;1.70;99.90;;;;;;5014112;28;20200;-83
2023/03/02 01:41:06;;;;;;;14.00;7.67;;;1.70;99.90;;;;;;5013785;28;20174;-83
2023/03/02 01:43:32;;;;;;;13.10;7.00;;;1.80;99.90;;;;;;5013806;28;20701;-82
2023/03/02 01:46:11;;;;;;;15.30;7.00;;;1.70;99.90;;;;;;5013559;28;20214;-81
2023/03/02 01:49:06;;;;;;;12.87;7.00;;;1.60;99.90;;;;;;5012127;28;20268;-82
2023/03/02 01:51:42;;;;;;;11.53;5.80;;;1.40;99.90;;;;;;5013903;28;20924;-81
2023/03/02 01:54:16;;;;;;;11.17;5.83;;;1.40;99.90;;;;;;5013732;28;20426;-80
2023/03/02 01:56:43;;;;;;;11.67;6.40;;;1.50;99.90;;;;;;5012469;28;20412;-82
2023/03/02 01:59:18;;;;;;;12.77;7.50;;;1.50;99.90;;;;;;5012603;28;20509;-80
2023/03/02 02:01:49;;;;;;;13.13;8.00;;;1.60;99.90;;;;;;5012877;28;20413;-86
2023/03/02 02:04:15;;;;;;;13.80;6.60;;;1.50;99.90;;;;;;5013751;28;20412;-82
2023/03/02 02:06:49;;;;;;;13.47;7.13;;;1.50;99.90;;;;;;5012247;28;20881;-85
2023/03/02 02:09:18;;;;;;;17.30;8.40;;;1.50;99.90;;;;;;5014220;28;20444;-82
2023/03/02 02:11:44;;;;;;;9.67;7.00;;;1.60;99.90;;;;;;5012633;28;20785;-81
2023/03/02 02:14:11;;;;;;;13.97;7.03;;;1.60;99.90;;;;;;5012568;28;20941;-84
2023/03/02 02:16:37;;;;;;;12.97;7.37;;;1.40;99.90;;;;;;5013983;28;20428;-83
2023/03/02 02:19:11;;;;;;;12.57;6.23;;;1.60;99.90;;;;;;5013870;28;20459;-82
2023/03/02 02:21:37;;;;;;;9.83;5.60;;;1.50;99.90;;;;;;5013900;28;20408;-81
2023/03/02 02:24:05;;;;;;;15.30;6.77;;;1.40;99.90;;;;;;5013683;28;20438;-86
2023/03/02 02:26:47;;;;;;;12.37;7.80;;;1.40;99.90;;;;;;5013675;28;20213;-83
2023/03/02 02:29:23;;;;;;;12.93;6.93;;;1.30;99.90;;;;;;5014143;28;20429;-80
2023/03/02 02:32:13;;;;;;;12.10;6.27;;;1.20;99.90;;;;;;5013654;28;20482;-91
2023/03/02 02:34:45;;;;;;;12.07;7.00;;;1.30;99.90;;;;;;5013904;28;20424;-91
2023/03/02 02:37:30;;;;;;;9.47;6.10;;;1.30;99.90;;;;;;5014032;28;20459;-81
2023/03/02 02:39:56;;;;;;;9.80;5.80;;;1.30;99.90;;;;;;5013111;28;20428;-92
2023/03/02 02:42:35;;;;;;;13.67;7.00;;;1.40;99.90;;;;;;5013916;28;20415;-86
2023/03/02 02:45:05;;;;;;;10.37;6.13;;;1.40;99.90;;;;;;5013525;28;20421;-92
2023/03/02 02:47:31;;;;;;;11.27;6.37;;;1.30;99.90;;;;;;5014662;28;20974;-92
2023/03/02 02:49:57;;;;;;;10.77;5.63;;;1.30;99.90;;;;;;5013726;28;20502;-92
2023/03/02 02:52:26;;;;;;;9.83;5.87;;;1.20;99.90;;;;;;5014434;28;20428;-91
2023/03/02 02:54:56;;;;;;;12.00;7.37;;;1.20;99.90;;;;;;5014494;28;20433;-92
2023/03/02 02:57:27;;;;;;;12.87;7.20;;;1.10;99.90;;;;;;5014290;28;20419;-93
2023/03/02 02:59:56;;;;;;;14.40;7.30;;;1.10;99.90;;;;;;5012901;28;20432;-89
2023/03/02 03:02:26;;;;;;;10.00;5.30;;;1.00;99.90;;;;;;5012575;28;20517;-89
2023/03/02 03:05:01;;;;;;;12.93;6.30;;;1.10;99.90;;;;;;5013969;28;20419;-81
2023/03/02 03:07:28;;;;;;;12.97;7.60;;;1.00;99.90;;;;;;5013812;28;20471;-89
2023/03/02 03:10:07;;;;;;;14.13;7.50;;;1.10;99.90;;;;;;5014098;28;20411;-81
2023/03/02 03:12:34;;;;;;;12.57;7.80;;;1.10;99.90;;;;;;5013717;28;20410;-89
2023/03/02 03:15:01;;;;;;;13.70;8.30;;;1.10;99.90;;;;;;5013640;28;20423;-80
2023/03/02 03:17:27;;;;;;;11.53;7.00;;;1.00;99.90;;;;;;5012894;28;20423;-89
2023/03/02 03:20:04;;;;;;;17.47;6.63;;;1.00;99.90;;;;;;5013377;28;20411;-89
2023/03/02 03:22:31;;;;;;;10.30;5.73;;;1.10;99.90;;;;;;5014065;28;20191;-88
2023/03/02 03:24:57;;;;;;;12.60;5.63;;;1.10;99.90;;;;;;5012234;28;20486;-88
2023/03/02 03:27:23;;;;;;;9.90;4.40;;;1.00;99.90;;;;;;5013799;28;20463;-87
2023/03/02 03:29:48;;;;;;;7.80;5.67;;;1.00;99.90;;;;;;5015345;28;20917;-89
2023/03/02 03:32:14;;;;;;;12.10;6.70;;;1.10;99.90;;;;;;5017342;28;20535;-81
2023/03/02 03:34:40;;;;;;;14.27;5.50;;;1.10;99.90;;;;;;5016828;28;20168;-80
2023/03/02 03:37:08;;;;;;;9.60;5.83;;;1.10;99.90;;;;;;5017404;28;20220;-80
2023/03/02 03:39:34;;;;;;;10.07;5.50;;;1.20;99.90;;;;;;5016158;28;20426;-92
2023/03/02 03:42:00;;;;;;;15.70;6.93;;;0.90;99.90;;;;;;5016652;28;20421;-82
2023/03/02 03:44:29;;;;;;;9.43;5.33;;;1.10;99.90;;;;;;5017889;28;20939;-92
2023/03/02 03:46:54;;;;;;;11.20;6.13;;;1.20;99.90;;;;;;5017840;28;20311;-91
2023/03/02 03:49:20;;;;;;;14.47;7.37;;;1.20;99.90;;;;;;5016636;28;20465;-92
2023/03/02 03:51:46;;;;;;;13.57;7.13;;;1.20;99.90;;;;;;5017358;28;20179;-93
2023/03/02 03:54:12;;;;;;;11.10;6.07;;;1.10;99.90;;;;;;5017234;28;20518;-92
2023/03/02 03:56:40;;;;;;;14.43;7.00;;;1.10;99.90;;;;;;5015902;28;20429;-92
2023/03/02 03:59:07;;;;;;;12.80;5.70;;;1.00;99.90;;;;;;5017171;28;20207;-91
2023/03/02 04:01:45;;;;;;;12.90;6.27;;;1.00;99.90;;;;;;5016702;28;20424;-89
2023/03/02 04:04:20;;;;;;;13.90;6.57;;;1.00;99.90;;;;;;5016988;28;20401;-90
2023/03/02 04:06:46;;;;;;;12.43;6.00;;;1.00;99.90;;;;;;5017453;28;20472;-92
2023/03/02 04:09:14;;;;;;;11.73;5.70;;;1.10;99.90;;;;;;5017594;28;20423;-93
2023/03/02 04:11:44;;;;;;;11.40;6.40;;;1.00;99.90;;;;;;5016952;28;20236;-89
2023/03/02 04:14:12;;;;;;;11.80;5.87;;;0.90;99.90;;;;;;5017100;28;20749;-83
2023/03/02 04:16:39;;;;;;;11.20;5.57;;;0.90;99.90;;;;;;5015826;28;20414;-88
2023/03/02 04:19:09;;;;;;;13.97;6.53;;;0.80;99.90;;;;;;5015533;28;20408;-87
2023/03/02 04:21:40;;;;;;;10.93;5.50;;;0.80;99.90;;;;;;5015981;28;20419;-78
2023/03/02 04:24:07;;;;;;;14.00;6.10;;;0.80;99.90;;;;;;5016250;28;20490;-79
2023/03/02 04:26:34;;;;;;;11.27;6.10;;;0.80;99.90;;;;;;5015703;28;20475;-78
2023/03/02 04:29:00;;;;;;;14.50;6.40;;;0.80;99.90;;;;;;5015988;28;20452;-78
2023/03/02 04:31:25;;;;;;;11.80;6.83;;;0.90;99.90;;;;;;5015570;28;20566;-89
2023/03/02 04:33:51;;;;;;;12.57;6.23;;;0.80;99.90;;;;;;5015815;28;20177;-86
2023/03/02 04:36:18;;;;;;;10.77;5.60;;;0.90;99.90;;;;;;5015777;28;20200;-89
2023/03/02 04:38:44;;;;;;;12.17;5.97;;;1.00;99.90;;;;;;5015738;28;20178;-86
2023/03/02 04:41:09;;;;;;;12.50;5.83;;;1.00;99.90;;;;;;5015427;28;20420;-86
2023/03/02 04:43:35;;;;;;;12.77;6.63;;;1.00;99.90;;;;;;5014063;28;20945;-86
2023/03/02 04:46:00;;;;;;;10.87;5.50;;;1.00;99.90;;;;;;5016535;28;20309;-89
2023/03/02 04:48:26;;;;;;;17.47;6.53;;;0.90;99.90;;;;;;5016477;28;20166;-92
2023/03/02 04:50:51;;;;;;;13.40;6.87;;;1.10;99.90;;;;;;5018344;28;20199;-92
2023/03/02 04:53:17;;;;;;;10.50;5.20;;;1.00;99.90;;;;;;5017550;28;20183;-93
2023/03/02 04:55:42;;;;;;;16.03;7.17;;;1.00;99.90;;;;;;5016488;28;20178;-91
2023/03/02 04:58:08;;;;;;;13.23;7.43;;;1.10;99.90;;;;;;5016565;28;20194;-94
2023/03/02 05:00:34;;;;;;;13.30;6.30;;;1.10;99.90;;;;;;5016625;28;20188;-91
2023/03/02 05:03:01;;;;;;;13.93;8.00;;;1.10;99.90;;;;;;5015746;28;20179;-85
2023/03/02 05:05:27;;;;;;;13.33;5.93;;;1.10;99.90;;;;;;5016817;28;20190;-91
2023/03/02 05:07:53;;;;;;;13.80;7.20;;;1.10;99.90;;;;;;5015750;28;20807;-90
2023/03/02 05:10:20;;;;;;;10.50;5.80;;;1.00;99.90;;;;;;5021077;28;20434;-88
2023/03/02 05:12:57;;;;;;;12.80;6.23;;;1.00;99.90;;;;;;5018385;28;20185;-90
2023/03/02 05:15:27;;;;;;;14.60;7.90;;;1.10;99.90;;;;;;5015860;28;20396;-92
2023/03/02 05:17:53;;;;;;;12.77;6.20;;;1.10;99.90;;;;;;5015518;28;20426;-79
2023/03/02 05:20:19;;;;;;;11.57;6.40;;;1.20;99.90;;;;;;5015693;28;20898;-89
2023/03/02 05:22:45;;;;;;;10.90;7.00;;;1.00;99.90;;;;;;5015075;28;20424;-87
2023/03/02 05:25:11;;;;;;;13.57;6.77;;;1.00;99.90;;;;;;5016499;28;20463;-81
2023/03/02 05:27:37;;;;;;;9.47;5.43;;;1.00;99.90;;;;;;5014878;28;20471;-79
2023/03/02 05:30:06;;;;;;;13.23;7.97;;;1.00;99.90;;;;;;5016491;28;20580;-80
2023/03/02 05:32:32;;;;;;;13.07;7.30;;;1.00;99.90;;;;;;5015126;28;20460;-93
2023/03/02 05:34:57;;;;;;;14.93;7.57;;;1.00;99.90;;;;;;5014202;28;20427;-89
2023/03/02 05:37:23;;;;;;;15.63;6.67;;;0.90;99.90;;;;;;5013873;28;20177;-88
2023/03/02 05:39:48;;;;;;;14.07;7.57;;;0.90;99.90;;;;;;5014584;28;20184;-87
2023/03/02 05:42:14;;;;;;;14.70;8.43;;;1.00;99.90;;;;;;5015573;28;20243;-93
2023/03/02 05:44:39;;;;;;;15.97;8.37;;;1.00;99.90;;;;;;5015005;28;20212;-91
2023/03/02 05:47:05;;;;;;;12.17;5.53;;;1.10;99.90;;;;;;5017501;28;20216;-92
2023/03/02 05:49:31;;;;;;;15.37;7.40;;;;;;;;;;5017878;28;20184;-88
2023/03/02 05:51:59;;;;;;;15.00;6.93;;;;;;;;;;5021510;28;20543;-92
2023/03/02 05:54:25;;;;;;;17.73;6.50;;;;;;;;;;5019332;28;20464;-90
2023/03/02 05:56:51;;;;;;;15.00;6.97;;;0.80;99.90;;;;;;5015643;28;20453;-87
2023/03/02 05:59:16;;;;;;;14.67;7.23;;;0.90;99.90;;;;;;5014039;28;20421;-83
2023/03/02 06:01:44;;;;;;;14.27;7.13;;;1.00;99.90;;;;;;5015152;28;20572;-90
2023/03/02 06:04:09;;;;;;;16.03;7.37;;;1.00;99.90;;;;;;5015231;28;20199;-87
2023/03/02 06:06:35;;;;;;;12.07;7.30;;;1.00;99.90;;;;;;5014483;28;20508;-90
2023/03/02 06:09:00;;;;;;;16.30;7.80;;;0.90;99.90;;;;;;5014750;28;20174;-89
2023/03/02 06:11:26;;;;;;;10.87;6.33;;;0.90;99.90;;;;;;5013906;28;20211;-88
2023/03/02 06:13:51;;;;;;;13.70;6.60;;;1.00;99.90;;;;;;5014735;28;20260;-85
2023/03/02 06:16:17;;;;;;;19.20;9.70;;;0.90;99.90;;;;;;5015607;28;20274;-90
2023/03/02 06:18:44;;;;;;;14.20;8.00;;;0.80;99.90;;;;;;5009025;28;20183;-89
2023/03/02 06:21:10;;;;;;;18.47;9.20;;;0.80;99.90;;;;;;5001787;28;20179;-86
2023/03/02 06:23:35;;;;;;;12.13;7.60;;;0.90;99.90;;;;;;4999798;28;20420;-86
2023/03/02 06:26:07;;;;;;;17.57;8.13;;;1.10;99.90;;;;;;4997047;28;20204;-81
2023/03/02 06:28:32;;;;;;;11.73;7.13;;;0.90;99.90;;;;;;4993453;28;20175;-86
2023/03/02 06:30:59;;;;;;;17.37;8.77;;;0.70;99.90;;;;;;4994615;28;20425;-90
2023/03/02 06:33:24;;;;;;;13.50;6.17;;;0.80;99.90;;;;;;4993386;28;20222;-82
2023/03/02 06:35:50;;;;;;;22.07;9.27;;;0.80;99.90;;;;;;4993515;28;20409;-86
2023/03/02 06:38:16;;;;;;;16.53;8.40;;;1.00;99.90;;;;;;4994766;28;20176;-90
2023/03/02 06:40:44;;;;;;;18.30;8.17;;;0.90;99.90;;;;;;4994035;28;20331;-90
2023/03/02 06:43:12;;;;;;;15.17;8.17;;;1.00;99.90;;;;;;4993075;28;20174;-82
2023/03/02 06:45:38;;;;;;;17.87;8.20;;;0.80;99.90;;;;;;4993051;28;20639;-82
2023/03/02 06:48:05;;;;;;;19.07;8.50;;;1.00;99.90;;;;;;4993743;28;20428;-81
2023/03/02 06:50:30;;;;;;;16.30;8.10;;;1.00;99.90;;;;;;4994003;28;20434;-83
2023/03/02 06:52:56;;;;;;;16.03;7.53;;;0.90;99.90;;;;;;4994322;28;20510;-83
2023/03/02 06:55:22;;;;;;;19.07;7.87;;;0.90;99.90;;;;;;4993907;28;20179;-87
2023/03/02 06:57:48;;;;;;;13.40;7.30;;;0.70;99.90;;;;;;5003198;28;20190;-89
2023/03/02 07:00:23;;;;;;;17.37;7.97;;;0.60;99.90;;;;;;4993916;28;20439;-83
2023/03/02 07:02:50;;;;;;;15.57;6.90;;;0.60;99.90;;;;;;4993836;28;20171;-84
2023/03/02 07:05:15;;;;;;;13.40;7.40;;;0.50;99.90;;;;;;4997845;28;20505;-83
2023/03/02 07:07:41;;;;;;;24.10;8.43;;;0.60;99.90;;;;;;4999084;28;20566;-93
2023/03/02 07:10:08;;;;;;;16.27;7.27;;;0.50;99.90;;;;;;5001936;28;20182;-81
2023/03/02 07:12:34;;;;;;;17.93;7.73;;;0.70;99.90;;;;;;5001267;28;20180;-93
2023/03/02 07:14:59;;;;;;;17.77;8.47;;;0.70;99.90;;;;;;5001959;28;20458;-92
2023/03/02 07:17:25;;;;;;;17.80;9.17;;;0.90;99.90;;;;;;5003609;28;20754;-79
2023/03/02 07:19:50;;;;;;;15.23;7.80;;;1.00;99.90;;;;;;5003607;28;20210;-86
2023/03/02 07:22:16;;;;;;;21.80;9.00;;;0.90;99.90;;;;;;5003652;28;20253;-93
2023/03/02 07:24:41;;;;;;;14.27;7.30;;;1.00;99.90;;;;;;5002776;28;20168;-82
2023/03/02 07:27:06;;;;;;;13.70;7.33;;;1.00;99.90;;;;;;4999031;28;20214;-82
2023/03/02 07:29:32;;;;;;;14.80;8.03;;;1.20;99.90;;;;;;4999348;28;20230;-93
2023/03/02 07:32:00;;;;;;;16.83;8.37;;;1.10;99.90;;;;;;4999708;28;20220;-92
2023/03/02 07:34:26;;;;;;;13.43;5.67;;;1.20;99.90;;;;;;4997905;28;20180;-80
2023/03/02 07:36:52;;;;;;;18.20;6.30;;;1.00;99.90;;;;;;4997603;28;20415;-89
2023/03/02 07:39:19;;;;;;;15.67;7.27;;;1.00;99.90;;;;;;4998357;28;20405;-91
2023/03/02 07:41:44;;;;;;;16.23;7.13;;;1.00;99.90;;;;;;4997572;28;20178;-92
2023/03/02 07:44:10;;;;;;;16.37;8.60;;;1.20;99.90;;;;;;4997540;28;20410;-89
2023/03/02 07:46:35;;;;;;;17.33;9.50;;;1.20;99.90;;;;;;4997248;28;20203;-79
2023/03/02 07:49:02;;;;;;;16.43;8.17;;;1.20;99.90;;;;;;4996862;28;20200;-92
2023/03/02 07:51:27;;;;;;;14.97;7.50;;;1.30;99.90;;;;;;4995875;28;20782;-87
2023/03/02 07:53:53;;;;;;;19.43;8.97;;;1.20;99.90;;;;;;4995647;28;20182;-91
2023/03/02 07:56:19;;;;;;;14.33;7.90;;;1.40;99.90;;;;;;4997379;28;20177;-90
2023/03/02 07:58:45;;;;;;;13.93;6.27;;;1.30;99.90;;;;;;5016701;28;20170;-81
2023/03/02 08:01:11;;;;;;;17.40;9.33;;;1.20;99.90;;;;;;5016390;28;20546;-88
2023/03/02 08:03:37;;;;;;;17.07;9.20;;;1.30;99.90;;;;;;5015806;28;20167;-90
2023/03/02 08:06:10;;;;;;;26.90;9.33;;;1.40;99.90;;;;;;5016299;28;20942;-90
2023/03/02 08:08:36;;;;;;;23.33;9.23;;;1.30;99.90;;;;;;5016374;28;20175;-84
2023/03/02 08:11:11;;;;;;;23.83;9.87;;;1.20;99.90;;;;;;5016334;28;20410;-85
2023/03/02 08:13:36;;;;;;;22.87;8.93;;;1.20;99.90;;;;;;5016103;28;20174;-79
2023/03/02 08:16:04;;;;;;;15.23;8.53;;;1.40;99.90;;;;;;5015783;28;20448;-88
2023/03/02 08:18:29;;;;;;;18.40;9.07;;;1.40;99.90;;;;;;5015465;28;20171;-79
2023/03/02 08:20:55;;;;;;;15.03;8.87;;;1.60;99.90;;;;;;5015482;28;20512;-79
2023/03/02 08:23:21;;;;;;;16.80;8.80;;;1.60;99.90;;;;;;5015666;28;20584;-90
2023/03/02 08:25:47;;;;;;;17.10;8.30;;;1.60;99.90;;;;;;5015448;28;20651;-78
2023/03/02 08:28:12;;;;;;;20.10;10.10;;;1.50;99.90;;;;;;5015420;28;20485;-86
2023/03/02 08:30:38;;;;;;;21.63;10.40;;;1.50;99.90;;;;;;5015314;28;20674;-86
2023/03/02 08:33:04;;;;;;;15.40;7.10;;;1.40;99.90;;;;;;5013301;28;20581;-86
2023/03/02 08:35:29;;;;;;;15.87;9.20;;;1.60;99.90;;;;;;5030323;28;20180;-79
2023/03/02 08:37:55;;;;;;;19.77;9.90;;;;;;;;;;5015179;28;20840;-84
2023/03/02 08:40:21;;;;;;;19.20;9.53;;;;;;;;;;5015202;28;20180;-91
2023/03/02 08:42:48;;;;;;;13.80;8.23;;;;;;;;;;5015110;28;20410;-85
2023/03/02 08:45:14;;;;;;;15.73;8.10;;;;;;;;;;5030269;28;20418;-87
2023/03/02 08:47:40;;;;;;;22.30;10.50;;;1.80;99.90;;;;;;5014437;28;20476;-84
2023/03/02 08:50:09;;;;;;;17.43;9.83;;;1.70;99.90;;;;;;5015083;28;20420;-80
2023/03/02 08:52:34;;;;;;;18.90;10.63;;;1.70;99.90;;;;;;5014913;28;20704;-86
2023/03/02 08:55:00;;;;;;;16.77;8.60;;;1.90;99.90;;;;;;5013406;28;20425;-86
2023/03/02 08:57:25;;;;;;;14.00;8.67;;;1.70;99.90;;;;;;5013299;28;20188;-80
2023/03/02 08:59:51;;;;;;;20.80;9.20;;;1.80;99.90;;;;;;5014249;28;20206;-85
2023/03/02 09:02:17;;;;;;;23.07;10.87;;;1.90;99.90;;;;;;5013545;28;20640;-80
2023/03/02 09:04:43;;;;;;;20.00;9.47;;;1.90;99.90;;;;;;5014490;28;20946;-86
2023/03/02 09:07:08;;;;;;;21.53;9.67;;;2.00;99.90;;;;;;5014365;28;20485;-80
2023/03/02 09:09:34;;;;;;;15.20;8.77;;;2.30;99.90;;;;;;5014756;28;20256;-79
2023/03/02 09:12:00;;;;;;;17.90;8.50;;;2.80;99.90;;;;;;5029704;28;20176;-83
2023/03/02 09:14:26;;;;;;;15.53;9.00;;;2.40;99.90;;;;;;5014297;28;20176;-79
2023/03/02 09:16:54;;;;;;;15.80;8.40;;;2.20;99.90;;;;;;5014207;28;20539;-81
2023/03/02 09:19:21;;;;;;;19.67;9.90;;;2.50;99.90;;;;;;5013859;28;20422;-86
2023/03/02 09:21:46;;;;;;;18.50;8.97;;;2.50;99.90;;;;;;5014218;28;20517;-85
2023/03/02 09:24:12;;;;;;;18.23;8.17;;;2.30;99.90;;;;;;5015023;28;20838;-88
2023/03/02 09:26:38;;;;;;;17.30;10.70;;;2.30;99.90;;;;;;5012327;28;20218;-85
2023/03/02 09:29:05;;;;;;;21.83;10.00;;;2.40;99.90;;;;;;5013867;28;20508;-85
2023/03/02 09:31:31;;;;;;;18.27;10.10;;;2.60;99.90;;;;;;5012799;28;20692;-81
2023/03/02 09:33:56;;;;;;;16.70;9.10;;;2.50;99.90;;;;;;5013771;28;20505;-84
2023/03/02 09:36:31;;;;;;;18.37;8.63;;;2.30;99.90;;;;;;5012805;28;20632;-83
2023/03/02 09:38:57;;;;;;;17.87;9.57;;;2.40;99.90;;;;;;5014066;28;20631;-82
2023/03/02 09:41:48;;;;;;;14.80;9.43;;;2.30;99.90;;;;;;5013793;28;20428;-85
2023/03/02 09:44:42;;;;;;;22.92;11.57;;;2.20;99.90;;;;;;5013505;28;20784;-83
2023/03/02 09:47:59;;;;;;;16.60;9.03;;;2.50;99.90;;;;;;5013390;28;20203;-82
2023/03/02 09:50:35;;;;;;;16.90;8.60;;;2.20;99.90;;;;;;4996661;28;20438;-80
2023/03/02 09:53:26;;;;;;;14.90;7.53;;;2.20;99.90;;;;;;5014042;28;20489;-83
2023/03/02 09:55:54;;;;;;;17.03;9.27;;;2.30;99.90;;;;;;5013778;28;20410;-82
2023/03/02 09:58:24;;;;;;;17.70;8.20;;;2.30;99.90;;;;;;5013930;28;20418;-81
2023/03/02 10:00:50;;;;;;;13.43;6.53;;;2.40;99.90;;;;;;5013703;28;20425;-85
2023/03/02 10:03:30;;;;;;;17.37;7.90;;;2.40;99.90;;;;;;5013509;28;20422;-82
2023/03/02 10:05:55;;;;;;;15.50;8.50;;;2.70;99.90;;;;;;5013365;28;20493;-86
2023/03/02 10:08:30;;;;;;;14.90;7.20;;;2.60;99.90;;;;;;5013511;28;20422;-85
2023/03/02 10:11:21;;;;;;;11.23;6.00;;;2.40;99.90;;;;;;5013556;28;20179;-81
2023/03/02 10:13:56;;;;;;;15.80;8.07;;;2.70;99.90;;;;;;5013509;28;20417;-87
2023/03/02 10:16:51;;;;;;;17.73;8.05;;;2.90;99.90;;;;;;5013256;28;20411;-82
2023/03/02 10:19:31;;;;;;;11.63;6.73;;;2.90;99.90;;;;;;4994787;28;20190;-82
2023/03/02 10:22:10;;;;;;;16.13;7.53;;;3.00;99.90;;;;;;5012251;28;20958;-82
2023/03/02 10:24:49;;;;;;;14.13;7.70;;;3.00;99.90;;;;;;5013875;28;20414;-83
2023/03/02 10:27:28;;;;;;;13.00;7.73;;;3.40;99.90;;;;;;5015151;28;20467;-93
2023/03/02 10:30:01;;;;;;;13.27;6.87;;;3.30;99.90;;;;;;5017057;28;20424;-92
2023/03/02 10:32:31;;;;;;;13.37;7.47;;;3.10;99.90;;;;;;5014130;28;20489;-84
2023/03/02 10:34:59;;;;;;;13.33;8.10;;;3.20;99.90;;;;;;5020806;28;20419;-92
2023/03/02 10:37:29;;;;;;;17.20;9.00;;;3.30;99.90;;;;;;5017149;28;20482;-81
2023/03/02 10:39:55;;;;;;;15.27;7.07;;;3.00;99.90;;;;;;5022253;28;20910;-86
2023/03/02 10:42:33;;;;;;;13.50;7.03;;;;;;;;;;5019159;28;20448;-90
2023/03/02 10:45:05;;;;;;;13.50;6.57;;;;;;;;;;5018234;28;20301;-87
2023/03/02 10:47:31;;;;;;;10.63;6.33;;;;;;;;;;5017750;28;20461;-90
2023/03/02 10:49:57;;;;;;;14.40;6.80;;;2.80;99.90;;;;;;5016173;28;20911;-88
2023/03/02 10:52:27;;;;;;;9.20;5.70;;;2.80;99.90;;;;;;5014430;28;20512;-87
2023/03/02 10:55:13;;;;;;;14.93;6.17;;;2.90;99.90;;;;;;5016401;28;20636;-87
2023/03/02 10:57:43;;;;;;;15.63;7.53;;;3.00;99.90;;;;;;5017029;28;20500;-87
2023/03/02 11:00:20;;;;;;;12.53;7.27;;;2.80;99.90;;;;;;5033231;28;20508;-87
2023/03/02 11:03:18;;;;;;;11.77;6.23;;;2.80;99.90;;;;;;5017030;28;20413;-87
2023/03/02 11:05:44;;;;;;;10.77;6.30;;;2.80;99.90;;;;;;5017348;28;20409;-88
2023/03/02 11:08:17;;;;;;;12.03;6.40;;;2.90;99.90;;;;;;5017238;28;20997;-85
2023/03/02 11:10:57;;;;;;;12.53;6.90;;;3.20;99.90;;;;;;5017586;28;20407;-87
2023/03/02 11:13:32;;;;;;;8.67;5.60;;;2.90;99.90;;;;;;5017461;28;20410;-87
2023/03/02 11:16:00;;;;;;;8.83;6.23;;;2.90;99.90;;;;;;5032862;28;20412;-90
2023/03/02 11:19:00;;;;;;;10.83;6.07;;;2.90;99.90;;;;;;5017003;28;20930;-88
2023/03/02 11:21:36;;;;;;;8.00;4.43;;;3.50;99.90;;;;;;4982764;28;20421;-82
2023/03/02 11:24:22;;;;;;;11.00;6.23;;;3.00;99.90;;;;;;5016207;28;20410;-79
2023/03/02 11:26:54;;;;;;;11.13;5.23;;;2.80;99.90;;;;;;5016263;28;20461;-80
2023/03/02 11:29:30;;;;;;;9.77;6.00;;;2.80;99.90;;;;;;5016250;28;20452;-78
2023/03/02 11:32:07;;;;;;;11.17;5.50;;;3.20;99.90;;;;;;5015628;28;20989;-79
2023/03/02 11:34:56;;;;;;;12.50;5.40;;;3.20;99.90;;;;;;5016207;28;20426;-79
2023/03/02 11:37:40;;;;;;;11.20;5.97;;;3.00;99.90;;;;;;5016463;28;20766;-84
2023/03/02 11:40:38;;;;;;;11.77;6.43;;;3.20;99.90;;;;;;5016197;28;20493;-87
2023/03/02 11:43:08;;;;;;;13.90;6.77;;;3.20;99.90;;;;;;5016068;28;21025;-83
2023/03/02 11:45:36;;;;;;;11.40;4.60;;;3.20;99.90;;;;;;5015885;28;20422;-84
2023/03/02 11:48:05;;;;;;;10.13;5.07;;;3.10;99.90;;;;;;5015616;28;20930;-79
2023/03/02 11:50:36;;;;;;;9.40;5.73;;;3.00;99.90;;;;;;5014865;28;20763;-78
2023/03/02 11:53:09;;;;;;;11.83;6.33;;;2.60;99.90;;;;;;5015906;28;20441;-88
2023/03/02 11:55:43;;;;;;;9.87;5.27;;;2.90;99.90;;;;;;5011685;28;20453;-81
2023/03/02 11:58:16;;;;;;;9.47;4.90;;;3.00;99.90;;;;;;5015696;28;20429;-81
2023/03/02 12:00:42;;;;;;;10.43;5.00;;;3.40;99.90;;;;;;5014627;28;20418;-83
2023/03/02 12:03:14;;;;;;;7.37;5.10;;;3.20;99.90;;;;;;5014906;28;20947;-89
2023/03/02 12:05:42;;;;;;;10.97;5.50;;;3.20;99.90;;;;;;5015914;28;20415;-87
2023/03/02 12:08:22;;;;;;;10.23;6.00;;;3.10;99.90;;;;;;5016143;28;20434;-92
2023/03/02 12:11:06;;;;;;;11.37;5.73;;;3.30;99.90;;;;;;5013529;28;20432;-87
2023/03/02 12:13:38;;;;;;;11.20;6.23;;;3.30;99.90;;;;;;5014734;28;20414;-88
2023/03/02 12:16:19;;;;;;;11.30;6.07;;;3.20;99.90;;;;;;5015162;28;20406;-87
2023/03/02 12:18:46;;;;;;;9.40;5.47;;;3.00;99.90;;;;;;5014072;28;20432;-82
2023/03/02 12:21:18;;;;;;;12.00;6.30;;;3.00;99.90;;;;;;5015423;28;20406;-89
2023/03/02 12:23:49;;;;;;;10.73;6.07;;;3.10;99.90;;;;;;5015414;28;20445;-81
2023/03/02 12:26:18;;;;;;;13.80;5.97;;;3.30;99.90;;;;;;5016299;28;20952;-89
2023/03/02 12:28:54;;;;;;;11.93;6.77;;;3.50;99.90;;;;;;5014160;28;20419;-91
2023/03/02 12:31:20;;;;;;;12.43;5.67;;;3.60;99.90;;;;;;5015389;28;20734;-92
2023/03/02 12:33:51;;;;;;;12.23;5.73;;;3.60;99.90;;;;;;5014429;28;20499;-84
2023/03/02 12:36:28;;;;;;;11.23;5.00;;;3.70;99.90;;;;;;5012661;28;20211;-85
2023/03/02 12:39:24;;;;;;;14.17;6.23;;;3.70;99.90;;;;;;5013933;28;20460;-79
2023/03/02 12:42:36;;;;;;;11.20;6.17;;;3.70;99.90;;;;;;5015240;28;20408;-87
2023/03/02 12:45:22;;;;;;;10.97;5.20;;;3.80;99.90;;;;;;5011140;28;20418;-83
2023/03/02 12:47:55;;;;;;;13.03;6.40;;;4.00;99.90;;;;;;5014823;28;20831;-79
2023/03/02 12:50:29;;;;;;;13.83;6.07;;;3.90;99.90;;;;;;5015097;28;20409;-88
2023/03/02 12:53:03;;;;;;;13.97;6.60;;;3.80;99.90;;;;;;5014956;28;20419;-86
2023/03/02 12:55:29;;;;;;;10.87;5.50;;;3.90;99.90;;;;;;5013511;28;20468;-78
2023/03/02 12:57:58;;;;;;;12.10;6.23;;;3.80;99.90;;;;;;5014722;28;20502;-78
2023/03/02 13:00:30;;;;;;;8.80;4.93;;;3.90;99.90;;;;;;5013578;28;20428;-85
2023/03/02 13:02:57;;;;;;;9.50;5.93;;;3.90;99.90;;;;;;5013143;28;20903;-80